Zelhem, Netherlands
Current Conditions -  °F | °C
As of 11:25 AM on Friday 24 Oct 2014 (Local Time) from EHDL Reporting Station
Broken Clouds Broken Clouds  
Wind Chill: 52°   Ceiling: 4500
Heat Index: 52°   Visibility: 6mi
Dew Point: 46°   Wind: 12mph
Humidity: 82%   Direction: 180°S
Pressure: 30.09"   Gusts: NA
Location:  52.01°N, 6.35°E
Report Text: EHDL 240925Z AUTO 18010KT 9999 BKN045 BKN150 11/08 Q1019 BLU
Loading
Personal Weather Stations






























Interactive Weather Map
Tropical Storm Tracking
New forecast layout! Learn more

10-Day Weather Forecast

Advertisements
Track Severe Weather on mobile